createdAt,value
2022-11-29T00:00:23.861Z,1.93
2022-11-29T00:03:27.723Z,1.98
2022-11-29T00:06:33.066Z,1.92
2022-11-29T00:09:35.780Z,1.78
2022-11-29T00:12:38.386Z,1.73
2022-11-29T00:15:41.431Z,1.73
2022-11-29T00:18:43.889Z,1.87
2022-11-29T00:21:46.635Z,1.78
2022-11-29T00:24:49.175Z,1.72
2022-11-29T00:27:52.011Z,1.75
2022-11-29T00:30:54.943Z,1.68
2022-11-29T00:34:02.272Z,1.70
2022-11-29T00:37:04.924Z,1.73
2022-11-29T00:40:08.589Z,1.75
2022-11-29T00:43:10.997Z,1.66
2022-11-29T00:46:13.718Z,1.75
2022-11-29T00:49:16.431Z,1.72
2022-11-29T00:52:19.259Z,1.55
2022-11-29T00:55:21.700Z,1.63
2022-11-29T00:58:24.573Z,1.54
2022-11-29T01:01:27.302Z,1.55
2022-11-29T01:04:30.194Z,1.53
2022-11-29T01:07:32.613Z,1.58
2022-11-29T01:10:35.390Z,1.71
2022-11-29T01:13:38.054Z,1.60
2022-11-29T01:16:40.940Z,1.54
2022-11-29T01:19:49.310Z,1.60
2022-11-29T01:22:53.467Z,1.67
2022-11-29T01:26:17.698Z,1.61
2022-11-29T01:29:20.693Z,1.63
2022-11-29T01:32:23.139Z,1.58
2022-11-29T01:35:25.872Z,1.59
2022-11-29T01:38:28.534Z,1.64
2022-11-29T01:41:33.771Z,1.67
2022-11-29T01:44:36.158Z,1.63
2022-11-29T01:47:43.778Z,1.54
2022-11-29T01:50:46.374Z,1.57
2022-11-29T01:53:49.255Z,1.61
2022-11-29T01:56:52.923Z,1.43
2022-11-29T02:00:02.296Z,1.40
2022-11-29T02:03:17.568Z,1.39
2022-11-29T02:06:20.782Z,1.37
2022-11-29T02:09:23.667Z,1.44
2022-11-29T02:12:43.283Z,1.46
2022-11-29T02:15:54.133Z,1.45
2022-11-29T02:19:53.420Z,1.55
2022-11-29T02:23:04.777Z,1.46
2022-11-29T02:26:41.412Z,1.43
2022-11-29T02:30:05.800Z,1.37
2022-11-29T02:33:31.993Z,1.39
2022-11-29T02:36:42.572Z,1.35
2022-11-29T02:39:51.227Z,1.38
2022-11-29T02:42:57.159Z,1.34
2022-11-29T02:46:18.374Z,1.35
2022-11-29T02:49:45.416Z,1.53
2022-11-29T02:52:53.299Z,1.42
2022-11-29T02:56:26.480Z,1.42
2022-11-29T02:59:52.863Z,1.31
2022-11-29T03:03:10.300Z,1.30
2022-11-29T03:06:32.211Z,1.22
2022-11-29T03:10:09.336Z,1.19
2022-11-29T03:13:47.523Z,1.28
2022-11-29T03:17:08.615Z,1.35
2022-11-29T03:20:20.029Z,1.28
2022-11-29T03:23:59.779Z,1.32
2022-11-29T03:27:09.419Z,1.28
2022-11-29T03:30:14.736Z,1.28
2022-11-29T03:33:38.015Z,1.30
2022-11-29T03:36:56.478Z,1.30
2022-11-29T03:40:08.069Z,1.28
2022-11-29T03:43:17.054Z,1.27
2022-11-29T03:46:42.400Z,1.12
2022-11-29T03:50:05.202Z,1.11
2022-11-29T03:53:25.990Z,1.15
2022-11-29T03:56:37.045Z,1.21
2022-11-29T04:00:02.292Z,1.15
2022-11-29T04:03:33.573Z,1.16
2022-11-29T04:07:13.356Z,1.22
2022-11-29T04:10:43.341Z,1.17
2022-11-29T04:14:27.719Z,1.19
2022-11-29T04:18:14.971Z,1.14
2022-11-29T04:21:46.324Z,1.21
2022-11-29T04:25:10.684Z,1.21
2022-11-29T04:28:40.963Z,1.11
2022-11-29T04:31:58.305Z,0.97
2022-11-29T04:35:32.858Z,0.99
2022-11-29T04:38:35.278Z,1.05
2022-11-29T04:41:48.610Z,1.04
2022-11-29T04:45:06.032Z,1.00
2022-11-29T04:48:23.816Z,0.98
2022-11-29T04:51:35.297Z,0.93
2022-11-29T04:54:48.716Z,1.02
2022-11-29T04:58:09.744Z,1.08
2022-11-29T05:01:21.725Z,1.13
2022-11-29T05:05:08.043Z,1.01
2022-11-29T05:08:22.645Z,1.07
2022-11-29T05:12:10.555Z,1.05
2022-11-29T05:15:15.948Z,1.06
2022-11-29T05:18:30.364Z,1.01
2022-11-29T05:21:38.700Z,1.04
2022-11-29T05:24:59.980Z,0.98
2022-11-29T05:28:10.412Z,1.04
2022-11-29T05:31:31.895Z,1.03
2022-11-29T05:34:54.559Z,0.93
2022-11-29T05:38:20.425Z,0.83
2022-11-29T05:41:44.963Z,0.90
2022-11-29T05:45:08.517Z,0.88
2022-11-29T05:48:18.854Z,0.82
2022-11-29T05:51:25.428Z,1.02
2022-11-29T05:54:42.452Z,0.92
2022-11-29T05:58:27.078Z,0.82
2022-11-29T06:01:41.869Z,0.91
2022-11-29T06:05:09.629Z,0.91
2022-11-29T06:08:36.518Z,0.91
2022-11-29T06:11:44.960Z,0.91
2022-11-29T06:15:16.457Z,0.82
2022-11-29T06:18:46.751Z,0.87
2022-11-29T06:22:01.546Z,0.86
2022-11-29T06:25:36.130Z,0.76
2022-11-29T06:28:46.330Z,0.86
2022-11-29T06:32:31.906Z,0.83
2022-11-29T06:35:34.988Z,0.91
2022-11-29T06:38:38.107Z,0.90
2022-11-29T06:41:40.620Z,0.97
2022-11-29T06:44:44.137Z,1.02
2022-11-29T06:48:00.155Z,1.05
2022-11-29T06:51:28.978Z,0.99
2022-11-29T06:54:48.461Z,1.01
2022-11-29T06:58:06.017Z,1.09
2022-11-29T07:01:18.930Z,0.93
2022-11-29T07:04:34.213Z,1.02
2022-11-29T07:07:37.033Z,1.08
2022-11-29T07:10:41.539Z,1.11
2022-11-29T07:13:44.254Z,1.19
2022-11-29T07:17:07.201Z,1.32
2022-11-29T07:20:18.542Z,1.22
2022-11-29T07:23:42.715Z,1.21
2022-11-29T07:27:01.701Z,1.20
2022-11-29T07:30:19.942Z,1.30
2022-11-29T07:33:47.956Z,1.36
2022-11-29T07:36:53.772Z,1.46
2022-11-29T07:39:59.338Z,1.50
2022-11-29T07:43:02.205Z,1.38
2022-11-29T07:46:04.691Z,1.45
2022-11-29T07:49:10.364Z,1.48
2022-11-29T07:52:14.777Z,1.55
2022-11-29T07:55:20.440Z,1.61
2022-11-29T07:58:23.937Z,1.37
2022-11-29T08:01:26.844Z,1.43
2022-11-29T08:04:30.011Z,1.41
2022-11-29T08:07:35.705Z,1.32
2022-11-29T08:10:38.757Z,1.35
2022-11-29T08:13:41.444Z,1.47
2022-11-29T08:16:44.218Z,1.48
2022-11-29T08:19:46.687Z,1.60
2022-11-29T08:22:58.373Z,1.69
2022-11-29T08:26:02.262Z,1.78
2022-11-29T08:29:04.937Z,1.76
2022-11-29T08:32:09.038Z,1.83
2022-11-29T08:35:11.934Z,1.92
2022-11-29T08:38:14.393Z,1.92
2022-11-29T08:41:17.613Z,1.72
2022-11-29T08:44:20.199Z,1.68
2022-11-29T08:47:38.168Z,1.70
2022-11-29T08:50:40.593Z,1.72
2022-11-29T08:53:43.529Z,1.67
2022-11-29T09:00:09.664Z,1.67
2022-11-29T09:03:31.446Z,1.73
2022-11-29T09:06:41.763Z,1.79
2022-11-29T09:09:44.438Z,1.79
2022-11-29T09:12:48.351Z,1.73
2022-11-29T09:15:50.877Z,1.81
2022-11-29T09:18:55.945Z,1.78
2022-11-29T09:21:58.529Z,1.66
2022-11-29T09:25:04.409Z,1.83
2022-11-29T09:28:07.457Z,1.75
2022-11-29T09:31:13.286Z,1.81
2022-11-29T09:34:16.844Z,1.93
2022-11-29T09:37:19.563Z,1.82
2022-11-29T09:40:30.908Z,1.95
2022-11-29T09:43:48.729Z,1.90
2022-11-29T09:47:09.006Z,2.04
2022-11-29T09:50:36.912Z,1.95
2022-11-29T09:54:18.102Z,2.10
2022-11-29T09:57:26.333Z,2.29
2022-11-29T10:00:30.665Z,2.12
2022-11-29T10:03:44.541Z,2.36
2022-11-29T10:07:01.989Z,2.41
2022-11-29T10:10:20.563Z,2.50
2022-11-29T10:13:29.673Z,2.53
2022-11-29T10:16:44.650Z,2.58
2022-11-29T10:19:52.984Z,2.44
2022-11-29T10:23:15.928Z,2.23
2022-11-29T10:26:20.306Z,2.40
2022-11-29T10:29:23.695Z,2.39
2022-11-29T10:32:30.922Z,2.49
2022-11-29T10:35:33.695Z,2.26
2022-11-29T10:38:36.609Z,2.71
2022-11-29T10:41:39.343Z,2.85
2022-11-29T10:44:42.053Z,2.89
2022-11-29T10:47:47.155Z,2.76
2022-11-29T10:50:52.001Z,2.65
2022-11-29T10:53:56.319Z,2.68
2022-11-29T10:57:01.500Z,2.60
2022-11-29T11:00:10.691Z,2.67
2022-11-29T11:03:24.533Z,2.59
2022-11-29T11:06:43.716Z,2.45
2022-11-29T11:09:53.380Z,2.35
2022-11-29T11:13:19.055Z,2.52
2022-11-29T11:16:25.789Z,2.64
2022-11-29T11:19:32.016Z,2.67
2022-11-29T11:22:39.313Z,2.68
2022-11-29T11:25:42.137Z,2.76
2022-11-29T11:29:01.666Z,2.81
2022-11-29T11:32:05.275Z,2.85
2022-11-29T11:35:22.753Z,2.78
2022-11-29T11:38:25.744Z,2.67
2022-11-29T11:41:54.202Z,2.64
2022-11-29T11:44:56.987Z,2.72
2022-11-29T11:48:11.970Z,2.57
2022-11-29T11:51:25.758Z,2.60
2022-11-29T11:54:29.571Z,2.54
2022-11-29T11:57:32.509Z,2.58
2022-11-29T12:01:13.426Z,2.60
2022-11-29T12:04:24.981Z,2.59
2022-11-29T12:08:06.168Z,2.61
2022-11-29T12:11:07.197Z,2.55
2022-11-29T12:14:21.624Z,2.56
2022-11-29T12:17:46.196Z,2.61
2022-11-29T12:20:59.247Z,2.47
2022-11-29T12:24:10.556Z,2.39
2022-11-29T12:27:15.573Z,2.36
2022-11-29T12:30:19.851Z,2.35
2022-11-29T12:33:49.979Z,2.46
2022-11-29T12:37:11.631Z,2.51
2022-11-29T12:40:58.646Z,2.42
2022-11-29T12:44:10.223Z,2.37
2022-11-29T12:47:37.913Z,2.56
2022-11-29T12:51:06.083Z,2.71
2022-11-29T12:54:16.019Z,2.71
2022-11-29T12:57:21.635Z,2.83
2022-11-29T13:00:28.868Z,2.81
2022-11-29T13:03:59.387Z,2.91
2022-11-29T13:07:13.753Z,2.85
2022-11-29T13:10:48.346Z,3.00
2022-11-29T13:14:34.611Z,2.94
2022-11-29T13:17:32.145Z,2.91
2022-11-29T13:21:24.135Z,2.87
2022-11-29T13:24:42.927Z,2.95
2022-11-29T13:27:58.470Z,2.93
2022-11-29T13:31:18.289Z,3.16
2022-11-29T13:34:42.752Z,3.15
2022-11-29T13:37:55.465Z,3.08
2022-11-29T13:41:30.898Z,2.95
2022-11-29T13:44:44.564Z,2.92
2022-11-29T13:48:10.877Z,3.00
2022-11-29T13:51:28.328Z,2.95
2022-11-29T13:54:33.694Z,2.83
2022-11-29T14:01:21.570Z,2.80
2022-11-29T14:04:41.465Z,2.85
2022-11-29T14:08:21.467Z,2.93
2022-11-29T14:11:28.947Z,2.91
2022-11-29T14:14:59.261Z,2.88
2022-11-29T14:18:08.245Z,2.91
2022-11-29T14:21:11.369Z,2.83
2022-11-29T14:24:32.536Z,2.85
2022-11-29T14:27:34.894Z,2.78
2022-11-29T14:30:43.755Z,2.78
2022-11-29T14:33:46.459Z,2.69
2022-11-29T14:36:59.005Z,2.65
2022-11-29T14:40:12.387Z,2.63
2022-11-29T14:43:36.676Z,2.62
2022-11-29T14:46:39.240Z,2.65
2022-11-29T14:49:45.409Z,2.67
2022-11-29T14:52:52.360Z,2.56
2022-11-29T14:56:47.463Z,2.64
2022-11-29T14:59:54.303Z,2.66
2022-11-29T15:03:01.256Z,2.62
2022-11-29T15:06:03.698Z,2.61
2022-11-29T15:09:17.185Z,2.63
2022-11-29T15:12:28.826Z,2.53
2022-11-29T15:15:50.259Z,2.53
2022-11-29T15:19:30.608Z,2.60
2022-11-29T15:23:01.684Z,2.63
2022-11-29T15:26:04.171Z,2.58
2022-11-29T15:29:19.203Z,2.59
2022-11-29T15:32:25.980Z,2.49
2022-11-29T15:35:29.668Z,2.50
2022-11-29T15:38:43.030Z,2.56
2022-11-29T15:41:45.818Z,2.65
2022-11-29T15:44:49.105Z,2.57
2022-11-29T15:47:52.750Z,2.53
2022-11-29T15:51:22.130Z,2.60
2022-11-29T15:54:29.022Z,2.57
2022-11-29T15:57:34.254Z,2.56
2022-11-29T16:00:37.470Z,2.56
2022-11-29T16:03:43.515Z,2.61
2022-11-29T16:06:47.486Z,2.56
2022-11-29T16:09:57.174Z,2.59
2022-11-29T16:13:06.297Z,2.65
2022-11-29T16:16:14.036Z,2.55
2022-11-29T16:19:30.150Z,2.51
2022-11-29T16:22:32.904Z,2.43
2022-11-29T16:25:50.743Z,2.49
2022-11-29T16:28:57.777Z,2.47
2022-11-29T16:32:11.508Z,2.53
2022-11-29T16:35:21.039Z,2.60
2022-11-29T16:38:23.834Z,2.56
2022-11-29T16:41:38.035Z,2.59
2022-11-29T16:44:40.451Z,2.67
2022-11-29T16:48:01.545Z,2.60
2022-11-29T16:51:09.758Z,2.62
2022-11-29T16:54:19.645Z,2.65
2022-11-29T16:57:22.588Z,2.53
2022-11-29T17:00:31.601Z,2.47
2022-11-29T17:03:34.535Z,2.45
2022-11-29T17:06:38.183Z,2.57
2022-11-29T17:09:41.101Z,2.50
2022-11-29T17:12:48.201Z,2.45
2022-11-29T17:15:50.944Z,2.46
2022-11-29T17:18:53.874Z,2.47
2022-11-29T17:21:56.517Z,2.52
2022-11-29T17:24:59.201Z,2.62
2022-11-29T17:28:01.757Z,2.67
2022-11-29T17:31:18.664Z,2.70
2022-11-29T17:34:21.333Z,2.68
2022-11-29T17:37:24.085Z,2.75
2022-11-29T17:40:27.486Z,2.78
2022-11-29T17:43:30.277Z,2.82
2022-11-29T17:46:35.374Z,2.77
2022-11-29T17:49:38.149Z,2.78
2022-11-29T17:52:41.231Z,2.77
2022-11-29T17:55:43.958Z,2.80
2022-11-29T17:58:46.439Z,2.86
2022-11-29T18:01:49.430Z,2.82
2022-11-29T18:04:52.283Z,2.73
2022-11-29T18:08:00.413Z,2.97
2022-11-29T18:11:07.372Z,2.81
2022-11-29T18:14:11.457Z,2.76
2022-11-29T18:17:14.263Z,2.67
2022-11-29T18:20:16.802Z,2.70
2022-11-29T18:23:19.542Z,2.70
2022-11-29T18:26:24.469Z,2.74
2022-11-29T18:29:28.686Z,2.72
2022-11-29T18:32:33.251Z,2.75
2022-11-29T18:35:36.027Z,2.77
2022-11-29T18:38:39.951Z,2.70
2022-11-29T18:41:45.157Z,2.75
2022-11-29T18:44:47.818Z,2.85
2022-11-29T18:47:50.772Z,2.87
2022-11-29T18:50:53.254Z,2.87
2022-11-29T18:53:56.899Z,2.78
2022-11-29T18:56:59.625Z,2.66
2022-11-29T19:00:03.494Z,2.63
2022-11-29T19:03:06.285Z,2.68
2022-11-29T19:06:14.921Z,2.65
2022-11-29T19:09:21.360Z,2.70
2022-11-29T19:12:24.447Z,2.76
2022-11-29T19:15:26.879Z,2.74
2022-11-29T19:18:30.047Z,2.75
2022-11-29T19:21:34.475Z,2.72
2022-11-29T19:24:37.647Z,2.73
2022-11-29T19:27:40.749Z,2.74
2022-11-29T19:30:43.776Z,2.72
2022-11-29T19:33:47.057Z,2.65
2022-11-29T19:36:49.800Z,2.72
2022-11-29T19:39:52.608Z,2.67
2022-11-29T19:42:55.362Z,2.68
2022-11-29T19:45:57.867Z,2.64
2022-11-29T19:49:01.618Z,2.71
2022-11-29T19:52:04.989Z,2.71
2022-11-29T19:55:08.145Z,2.68
2022-11-29T19:58:10.704Z,2.55
2022-11-29T20:01:25.263Z,2.67
2022-11-29T20:04:28.174Z,2.63
2022-11-29T20:07:30.693Z,2.64
2022-11-29T20:10:34.428Z,2.64
2022-11-29T20:13:38.362Z,2.65
2022-11-29T20:16:41.971Z,2.62
2022-11-29T20:19:44.789Z,2.63
2022-11-29T20:22:47.878Z,2.67
2022-11-29T20:25:51.467Z,2.63
2022-11-29T20:28:54.300Z,2.66
2022-11-29T20:31:56.890Z,2.62
2022-11-29T20:35:02.442Z,2.62
2022-11-29T20:38:41.334Z,2.56
2022-11-29T20:41:53.134Z,2.50
2022-11-29T20:44:57.349Z,2.52
2022-11-29T20:48:15.307Z,2.44
2022-11-29T20:51:17.985Z,2.48
2022-11-29T20:54:20.808Z,2.51
2022-11-29T20:57:23.520Z,2.63
2022-11-29T21:00:26.462Z,2.56
2022-11-29T21:03:29.879Z,2.53
2022-11-29T21:06:37.281Z,2.59
2022-11-29T21:09:39.726Z,2.60
2022-11-29T21:12:45.564Z,2.55
2022-11-29T21:15:48.840Z,2.54
2022-11-29T21:18:54.190Z,2.59
2022-11-29T21:22:27.453Z,2.61
2022-11-29T21:25:51.638Z,2.69
2022-11-29T21:29:07.429Z,2.64
2022-11-29T21:32:22.094Z,2.70
2022-11-29T21:35:24.594Z,2.67
2022-11-29T21:38:29.089Z,2.71
2022-11-29T21:41:31.735Z,2.70
2022-11-29T21:44:34.527Z,2.73
2022-11-29T21:47:36.982Z,2.64
2022-11-29T21:50:39.793Z,2.60
2022-11-29T21:53:45.246Z,2.59
2022-11-29T21:56:48.049Z,2.59
2022-11-29T21:59:50.610Z,2.59
2022-11-29T22:02:53.454Z,2.63
2022-11-29T22:06:01.831Z,2.75
2022-11-29T22:09:04.942Z,2.70
2022-11-29T22:12:31.846Z,2.67
2022-11-29T22:15:31.886Z,2.66
2022-11-29T22:18:35.553Z,2.70
2022-11-29T22:21:43.097Z,2.68
2022-11-29T22:24:46.181Z,2.60
2022-11-29T22:27:49.139Z,2.58
2022-11-29T22:30:51.822Z,2.55
2022-11-29T22:33:55.129Z,2.66
2022-11-29T22:36:57.941Z,2.67
2022-11-29T22:40:00.573Z,2.70
2022-11-29T22:43:03.302Z,2.67
2022-11-29T22:46:23.472Z,2.65
2022-11-29T22:49:26.323Z,2.70
2022-11-29T22:52:28.862Z,2.68
2022-11-29T22:55:31.846Z,2.72
2022-11-29T22:58:34.874Z,2.77
2022-11-29T23:01:40.056Z,2.77
2022-11-29T23:04:44.098Z,2.79
2022-11-29T23:07:47.371Z,2.80
2022-11-29T23:10:57.266Z,2.87
2022-11-29T23:14:00.062Z,2.88
2022-11-29T23:17:02.513Z,2.87
2022-11-29T23:20:06.165Z,2.90
2022-11-29T23:23:09.567Z,2.87
2022-11-29T23:26:38.816Z,2.93
2022-11-29T23:29:41.294Z,2.99
2022-11-29T23:32:43.997Z,2.98
2022-11-29T23:35:46.583Z,2.99
2022-11-29T23:38:49.499Z,2.96
2022-11-29T23:41:51.979Z,3.02
2022-11-29T23:44:54.720Z,3.03
2022-11-29T23:47:57.759Z,2.94
2022-11-29T23:51:01.716Z,2.90
2022-11-29T23:54:04.366Z,2.94
2022-11-29T23:57:07.441Z,2.97
